Terminal Aerodrome Forecast
Issued by NWS

Home | Current Version | Previous Version | Text Only | Print | Product List | Glossary On
Versions: 1 2 3 4 5 6 7 8 9 10 11 12 13
120
FTUS46 KHNX 242320
TAFFAT
TAF
KFAT 242320Z 2500/2524 07011KT 5SM -RA BKN030 OVC050
     FM251000 10004KT P6SM BKN030
     FM251800 30009KT P6SM BKN050=

USA.gov is the U.S. government's official web portal to all federal, state and local government web resources and services.